METAR / TAF
Helsinki-Vantaa
HELSINKI/VANTAA
Metar
EFHK 230720Z 12007KT 9999 FEW018 BKN140 05/00 Q1016 NOSIG

07:20 UTC

Wind: 120° 7kt

Visibility: 9999 m

Sky: FEW 1800 ft

Temp: 5 deg C / 41 deg F

Dewpoint: 0 deg C / 32 deg F

Pressure: 1016 hPa

TAF
TAF EFHK 230531Z 2306/2406 14007KT 9999 FEW030 BKN130 BECMG 2307/2309 16010KT
Helsinki, Malmi
HELSINKI/MALMI
Turku
TURKU/ABO
Metar
EFTU 230720Z AUTO 17008KT 130V210 9999 BKN022/// OVC041/// 06/M00 Q1015

07:20 UTC

Wind: 170° 8kt

Visibility: 9999 m

Sky: BKN 2200 ft

Temp: 6 deg C / 42.8 deg F

Dewpoint: 0 deg C / 32 deg F

Pressure: 1015 hPa

TAF
TAF EFTU 230531Z 2306/2406 17008KT 9999 BKN030 TEMPO 2322/2401 7000 RA BKN010 BECMG 2401/2403 5000 BKN006 TEMPO 2403/2406 2000 BR BKN003
Tampere, Pirkkala
TAMPERE/PIRKKALA
Metar
EFTP 230720Z 17005KT 130V210 9999 FEW020 SCT140 05/00 Q1015

07:20 UTC

Wind: 170° 5kt

Visibility: 9999 m

Sky: FEW 2000 ft

Temp: 5 deg C / 41 deg F

Dewpoint: 0 deg C / 32 deg F

Pressure: 1015 hPa

TAF
TAF EFTP 230535Z 2306/2406 17007KT 9999 FEW013 SCT025 BECMG 2404/2406 1500 BR BKN004
Maarianhamina
MARIEHAMN/ALAND
Metar
EFMA 230720Z 13007KT 090V170 CAVOK 06/02 Q1013

07:20 UTC

Wind: 130° 7kt

Visibility:

Sky:

Temp: 6 deg C / 42.8 deg F

Dewpoint: 2 deg C / 35.6 deg F

Pressure: 1013 hPa

TAF
TAF EFMA 230531Z 2306/2315 15008KT 9999 FEW010 PROB40 2312/2315 15015G25KT
Pori
PORI (MIL/CIV)
Metar
EFPO 230720Z AUTO 16013KT 9999 SCT023/// 07/01 Q1014

07:20 UTC

Wind: 160° 13kt

Visibility: 9999 m

Sky: SCT 2300 ft

Temp: 7 deg C / 44.6 deg F

Dewpoint: 1 deg C / 33.8 deg F

Pressure: 1014 hPa

TAF
TAF EFPO 230535Z 2306/2315 16010KT 9999 BKN025
Vaasa
VAASA
Metar
EFVA 230720Z AUTO 15006KT 9999 SCT086/// 06/02 Q1012

07:20 UTC

Wind: 150° 6kt

Visibility: 9999 m

Sky: SCT 8600 ft

Temp: 6 deg C / 42.8 deg F

Dewpoint: 2 deg C / 35.6 deg F

Pressure: 1012 hPa

TAF
TAF EFVA 230535Z 2306/2406 17010KT 9999 BKN030 PROB30 TEMPO 2400/2402 7000 -RA BKN010 BECMG 2402/2404 2000 BR BKN005 BECMG 2404/2406 1200 -DZ OVC003
Kruunupyy
KRUUNUPYY
Metar
EFKK 230720Z 17010KT 9999 FEW032 07/02 Q1013

07:20 UTC

Wind: 170° 10kt

Visibility: 9999 m

Sky: FEW 3200 ft

Temp: 7 deg C / 44.6 deg F

Dewpoint: 2 deg C / 35.6 deg F

Pressure: 1013 hPa

TAF
TAF EFKK 230535Z 2306/2315 17010KT 9999 BKN030
Jyväskylä, Tikkakoski
JYVASKYLA (MIL/C
Metar
EFJY 230720Z 17006KT 130V210 CAVOK 04/M03 Q1015

07:20 UTC

Wind: 170° 6kt

Visibility:

Sky:

Temp: 4 deg C / 39.2 deg F

Dewpoint: -3 deg C / 26.6 deg F

Pressure: 1015 hPa

TAF
TAF EFJY 230535Z 2306/2406 17009KT 9999 FEW030 PROB30 2400/2404 4000 -SNRA
Kuopio
KUOPIO (MIL/CIV)
Metar
EFKU 230720Z 19005KT 160V240 9999 FEW035 BKN045 02/M03 Q1016

07:20 UTC

Wind: 190° 5kt

Visibility: 9999 m

Sky: FEW 3500 ft

Temp: 2 deg C / 35.6 deg F

Dewpoint: -3 deg C / 26.6 deg F

Pressure: 1016 hPa

TAF
TAF EFKU 230536Z 2306/2406 17005KT 9999 OVC045 TEMPO 2404/2406 7000 -RA
Joensuu
JOENSUU
Metar
EFJO 230720Z VRB04KT 9999 SCT044 03/M05 Q1016

07:20 UTC

Wind: ° 4kt

Visibility: 9999 m

Sky: SCT 4400 ft

Temp: 3 deg C / 37.4 deg F

Dewpoint: -5 deg C / 23 deg F

Pressure: 1016 hPa

TAF
TAF EFJO 230536Z 2306/2315 20002KT CAVOK
Halli
HALLI (FIN-AFB)
Metar
EFHA 230720Z 15007KT CAVOK 04/M03 Q1015

07:20 UTC

Wind: 150° 7kt

Visibility:

Sky:

Temp: 4 deg C / 39.2 deg F

Dewpoint: -3 deg C / 26.6 deg F

Pressure: 1015 hPa

TAF
TAF EFHA 230535Z 2306/2314 16008KT 9999 SCT030
Utti
UTTI (FIN-AFB)
Metar
EFUT 230720Z 22004KT 140V310 CAVOK 04/M06 Q1017

07:20 UTC

Wind: 220° 4kt

Visibility:

Sky:

Temp: 4 deg C / 39.2 deg F

Dewpoint: -6 deg C / 21.2 deg F

Pressure: 1017 hPa

TAF
TAF EFUT 230536Z 2306/2315 16003KT CAVOK
Mikkeli
MIKKELI
Metar
EFMI 230720Z AUTO 28003KT CAVOK 04/M04 Q1017

07:20 UTC

Wind: 280° 3kt

Visibility:

Sky:

Temp: 4 deg C / 39.2 deg F

Dewpoint: -4 deg C / 24.8 deg F

Pressure: 1017 hPa

Savonlinna
SAVONLINNA (AUT)
Metar
EFSA 230720Z AUTO VRB02KT CAVOK 03/M06 Q1017

07:20 UTC

Wind: ° 2kt

Visibility:

Sky:

Temp: 3 deg C / 37.4 deg F

Dewpoint: -6 deg C / 21.2 deg F

Pressure: 1017 hPa

TAF
TAF EFSA 230536Z 2306/2315 21001KT CAVOK
Lappeenranta
LAPPEENRANTA
Metar
EFLP 230720Z AUTO 34004KT 280V030 CAVOK 04/M07 Q1017

07:20 UTC

Wind: 340° 4kt

Visibility:

Sky:

Temp: 4 deg C / 39.2 deg F

Dewpoint: -7 deg C / 19.4 deg F

Pressure: 1017 hPa

Oulu
OULU/ULEABORG
Metar
EFOU 230720Z AUTO 15005KT 9999 SCT076/// 05/M01 Q1013

07:20 UTC

Wind: 150° 5kt

Visibility: 9999 m

Sky: SCT 7600 ft

Temp: 5 deg C / 41 deg F

Dewpoint: -1 deg C / 30.2 deg F

Pressure: 1013 hPa

TAF
TAF EFOU 230534Z 2306/2406 14006KT CAVOK TEMPO 2400/2403 7000 -RA
Kemi
KEMI
Metar
EFKE 230720Z AUTO 15006KT 9999 BKN023 OVC064 02/M03 Q1013

07:20 UTC

Wind: 150° 6kt

Visibility: 9999 m

Sky: BKN 2300 ft

Temp: 2 deg C / 35.6 deg F

Dewpoint: -3 deg C / 26.6 deg F

Pressure: 1013 hPa

TAF
TAF EFKE 230534Z 2306/2315 18005KT 9999 BKN040
Rovaniemi
ROVANIEMI (CIV/M
Metar
EFRO 230720Z VRB03KT 100V200 9999 FEW015 SCT023 BKN050 01/M02 Q1012

07:20 UTC

Wind: ° 3kt

Visibility: 9999 m

Sky: FEW 1500 ft

Temp: 1 deg C / 33.8 deg F

Dewpoint: -2 deg C / 28.4 deg F

Pressure: 1012 hPa

TAF
TAF AMD EFRO 230723Z 2307/2406 19005KT 9999 BKN025 TEMPO 2318/2403 7000 -RA
Enontekiö
ENONTEKIO
Metar
EFET 230720Z AUTO 14007KT 110V180 9999 OVC031 01/M05 Q1010

07:20 UTC

Wind: 140° 7kt

Visibility: 9999 m

Sky: OVC 3100 ft

Temp: 1 deg C / 33.8 deg F

Dewpoint: -5 deg C / 23 deg F

Pressure: 1010 hPa

Ivalo
IVALO
Metar
EFIV 230720Z AUTO VRB01KT CAVOK 01/M07 Q1012

07:20 UTC

Wind: ° 1kt

Visibility:

Sky:

Temp: 1 deg C / 33.8 deg F

Dewpoint: -7 deg C / 19.4 deg F

Pressure: 1012 hPa

TAF
TAF EFIV 230534Z 2306/2315 19004KT CAVOK
Kittilä
KITTILA
Metar
EFKT 230720Z AUTO 13005KT 9999 FEW038 SCT104 02/M02 Q1011

07:20 UTC

Wind: 130° 5kt

Visibility: 9999 m

Sky: FEW 3800 ft

Temp: 2 deg C / 35.6 deg F

Dewpoint: -2 deg C / 28.4 deg F

Pressure: 1011 hPa

TAF
TAF EFKT 230534Z 2306/2315 16004KT 9999 BKN025
Kuusamo
KUUSAMO
Metar
EFKS 230720Z AUTO 16004KT 9999 OVC016 01/M03 Q1013

07:20 UTC

Wind: 160° 4kt

Visibility: 9999 m

Sky: OVC 1600 ft

Temp: 1 deg C / 33.8 deg F

Dewpoint: -3 deg C / 26.6 deg F

Pressure: 1013 hPa

TAF
TAF EFKS 230534Z 2306/2312 21002KT 9999 OVC017
Kajaani
KAJAANI
Metar
EFKI 230720Z 21003KT 9999 FEW025 BKN074 04/M04 Q1014

07:20 UTC

Wind: 210° 3kt

Visibility: 9999 m

Sky: FEW 2500 ft

Temp: 4 deg C / 39.2 deg F

Dewpoint: -4 deg C / 24.8 deg F

Pressure: 1014 hPa

TAF
TAF EFKI 230536Z 2306/2315 19002KT 9999 FEW033
Varkaus
VARKAUS
Seinäjoki
SEINAJOKI-ILMAJO
Metar
EFSI 230720Z AUTO 17008KT 140V210 9999 ////// ///// Q////
Print Friendly, PDF & Email